Helgafell — OZ2049 — position and weather

sailwx.info

Track history (hours):
 
Tides and Currents Weather Stations Pressure Air Temp Water Temp Dewpoint Dewpoint Depression Visibility Wind Speed Wind Dir Waves Ship Positions

Helgafell

Last reported at 2018-Feb-21 18:00 UTC. Time now 2018-Feb-25 13:18 UTC.
Position N 63°30' W 020°06'.

Type: Cargo ship. MMSI: 231355978.

Wind from 180 at 23 knots

Barometer 988.0 mb
Air temperature 6.0 ° C
Visibility: greater than 5.4 NM

Date/timePositionNaut miles runAvg speedWind from/ knotsBaromVisibWave heightAir tempDewpointWater temp
2018-Feb-21 18:00N 63°30' W 020°06'26021.7 180 / 23988.0 5.4 6.0
2018-Feb-21 06:00N 66°18' W 027°54'331110.3 050 1005.810.8 -0.8 -1.3
2018-Feb-21 03:00N 66°48' W 014°06'19 6.4 200 / 191002.010.8 1.9 3.0
2018-Feb-21 00:00N 67°06' W 013°48'26989.7 220 1019.510.8 2.2 3.1
2018-Feb-20 21:00N 63°00' W 009°30'46512.1 270 1018.210.8 5.4
2018-Feb-19 06:34N 58°56' E 004°04'217.3
2018-Feb-19 06:29N 58°55' E 004°07'817.5
2018-Feb-19 06:00N 58°49' E 004°19'917.3
2018-Feb-19 05:30N 58°44' E 004°32'816.7
2018-Feb-19 05:00N 58°38' E 004°44'817.1
2018-Feb-19 04:30N 58°33' E 004°57'917.6
2018-Feb-19 04:00N 58°27' E 005°10'917.6
2018-Feb-19 03:31N 58°22' E 005°22'917.9
2018-Feb-19 03:01N 58°15' E 005°35'917.6
2018-Feb-19 02:30N 58°10' E 005°49'917.2
2018-Feb-19 02:00N 58°05' E 006°02'917.6
2018-Feb-19 01:31N 58°00' E 006°15'917.7
2018-Feb-19 01:01N 57°54' E 006°27'917.0
2018-Feb-19 00:30N 57°49' E 006°40'817.1
2018-Feb-19 00:00N 57°48' E 006°56'916.6
2018-Feb-18 23:29N 57°48' E 007°12'816.4
2018-Feb-18 23:01N 57°48' E 007°27'916.7
2018-Feb-18 22:30N 57°48' E 007°43'917.3
2018-Feb-18 22:00N 57°47' E 007°59'1417.5
2018-Feb-18 21:13N 57°47' E 008°25'416.4
2018-Feb-18 21:00N 57°47' E 008°31'4515.7
2018-Feb-18 18:06N 57°48' E 009°57'215.2
2018-Feb-18 18:00N 57°48' E 009°60'715.1
2018-Feb-18 17:30N 57°48' E 010°14'715.1
2018-Feb-18 17:01N 57°48' E 010°28'815.2
2018-Feb-18 16:31N 57°48' E 010°42'816.0
2018-Feb-18 16:01N 57°44' E 010°55'816.7
2018-Feb-18 15:31N 57°39' E 011°07'917.1
2018-Feb-18 15:00N 57°33' E 011°19'817.0
2018-Feb-18 14:31N 57°27' E 011°30'816.4
2018-Feb-18 14:00N 57°21' E 011°41'916.8
2018-Feb-18 13:30N 57°15' E 011°52'917.1
2018-Feb-18 12:59N 57°09' E 012°03'613.1
2018-Feb-18 12:31N 57°06' E 012°14'1061162.9
2018-Feb-18 06:00N 68°00' W 018°00'1080359.9 080 / 171008.310.8 1.6 1.7
2018-Feb-18 03:00N 56°24' E 011°30'1114.4 1021.810.8 3.8
2018-Feb-18 02:16N 56°14' E 011°22'1017.5
2018-Feb-18 01:41N 56°07' E 011°10'616.7
2018-Feb-18 01:18N 56°05' E 010°59'717.5
2018-Feb-18 00:56N 56°03' E 010°48'817.4
2018-Feb-18 00:30N 56°04' E 010°34'817.3
2018-Feb-18 00:01N 56°08' E 010°21'4 7.7
2018-Feb-17 23:30N 56°09' E 010°14'0 0.0
2018-Feb-17 23:00N 56°09' E 010°14'0 0.0
2018-Feb-17 22:30N 56°09' E 010°14'0 0.0
2018-Feb-17 22:00N 56°09' E 010°14'0 0.0
2018-Feb-17 21:30N 56°09' E 010°14'0 0.0
2018-Feb-17 21:00N 56°09' E 010°14'0 0.0
2018-Feb-17 20:30N 56°09' E 010°14'0 0.0
2018-Feb-17 20:00N 56°09' E 010°14'0 0.0
2018-Feb-17 19:30N 56°09' E 010°14'0 0.0
2018-Feb-17 19:00N 56°09' E 010°14'0 0.0
2018-Feb-17 18:30N 56°09' E 010°14'0 0.0
2018-Feb-17 18:00N 56°09' E 010°14'0 0.0
2018-Feb-17 17:30N 56°09' E 010°14'0 0.0
2018-Feb-17 17:00N 56°09' E 010°14'0 0.0
2018-Feb-17 16:30N 56°09' E 010°14'0 0.0
2018-Feb-17 16:00N 56°09' E 010°14'0 0.0
2018-Feb-17 15:30N 56°09' E 010°14'0 0.0
2018-Feb-17 15:00N 56°09' E 010°14'0 0.0
2018-Feb-17 14:30N 56°09' E 010°14'0 0.0
2018-Feb-17 14:00N 56°09' E 010°14'0 0.1
2018-Feb-17 13:31N 56°09' E 010°14'2 4.1
2018-Feb-17 13:00N 56°09' E 010°18'816.7
2018-Feb-17 12:30N 56°02' E 010°25'4115.6
2018-Feb-17 09:52N 55°25' E 010°59'615.6
2018-Feb-17 09:29N 55°19' E 011°02'816.1
2018-Feb-17 09:00N 55°12' E 011°06'816.2
2018-Feb-17 08:30N 55°04' E 011°03'815.9
2018-Feb-17 08:00N 54°57' E 010°57'815.4
2018-Feb-17 07:30N 54°49' E 010°52'816.0
2018-Feb-17 07:00N 54°41' E 010°52'917.2
2018-Feb-17 06:30N 54°36' E 010°41'916.9
2018-Feb-17 06:00N 54°32' E 010°28'20 8.0
2018-Feb-17 03:32N 54°21' E 009°60'0 8.0
2018-Feb-17 03:30N 54°21' E 009°59'3 6.6
2018-Feb-17 03:00N 54°21' E 009°54'4 8.0
2018-Feb-17 02:31N 54°21' E 009°47'4 8.1
2018-Feb-17 02:00N 54°18' E 009°43'4 7.4
2018-Feb-17 01:30N 54°16' E 009°38'4 7.3
2018-Feb-17 01:00N 54°13' E 009°35'4 8.4
2018-Feb-17 00:30N 54°11' E 009°28'4 8.5
2018-Feb-17 00:00N 54°09' E 009°22'3 6.1
2018-Feb-16 23:30N 54°06' E 009°20'4 7.4
2018-Feb-16 23:00N 54°03' E 009°18'2 4.8
2018-Feb-16 22:30N 54°00' E 009°18'4 8.0
2018-Feb-16 22:00N 53°57' E 009°14'1 2.8
2018-Feb-16 21:31N 53°56' E 009°12'3 6.1
2018-Feb-16 21:00N 53°54' E 009°09'0 0.2
2018-Feb-16 20:30N 53°54' E 009°09'2 3.3
2018-Feb-16 20:01N 53°53' E 009°06'4 8.3
2018-Feb-16 19:30N 53°51' E 008°60'612.9
2018-Feb-16 19:00N 53°50' E 008°49'4 7.2
2018-Feb-16 18:30N 53°52' E 008°43'0 0.0
2018-Feb-16 18:00N 53°52' E 008°43'0 0.0
2018-Feb-16 17:29N 53°52' E 008°43'0 0.0
2018-Feb-16 16:59N 53°52' E 008°43'0 0.0
2018-Feb-16 16:23N 53°52' E 008°43'0 0.0
2018-Feb-16 16:00N 53°52' E 008°43'0 0.0
2018-Feb-16 15:27N 53°52' E 008°43'0 0.0
2018-Feb-16 14:59N 53°52' E 008°43'0 0.0
2018-Feb-16 14:29N 53°52' E 008°43'0 0.0
2018-Feb-16 14:00N 53°52' E 008°43'0 0.0
2018-Feb-16 13:29N 53°52' E 008°43'0 0.2
2018-Feb-16 13:00N 53°52' E 008°43'2 3.8
2018-Feb-16 12:30N 53°53' E 008°42'510.1
2018-Feb-16 12:00N 53°57' E 008°36'713.2
2018-Feb-16 11:30N 53°59' E 008°25'815.5
2018-Feb-16 11:00N 53°60' E 008°12'510.4
2018-Feb-16 10:30N 53°58' E 008°04'2 4.0
2018-Feb-16 10:00N 53°58' E 008°01'2 4.3
2018-Feb-16 09:30N 53°57' E 007°57'2 4.7
2018-Feb-16 09:00N 53°57' E 007°53'7617.5
2018-Feb-16 04:37N 53°38' E 005°48'517.1
2018-Feb-16 04:20N 53°36' E 005°39'617.1
2018-Feb-16 03:59N 53°35' E 005°30'816.8
2018-Feb-16 03:30N 53°32' E 005°17'1416.6
2018-Feb-16 02:41N 53°27' E 004°56'316.5
2018-Feb-16 02:30N 53°26' E 004°51'1615.7
2018-Feb-16 01:29N 53°14' E 004°34'816.3
2018-Feb-16 01:00N 53°07' E 004°28'816.3
2018-Feb-16 00:31N 52°60' E 004°21'816.3
2018-Feb-16 00:00N 52°53' E 004°15'816.1
2018-Feb-15 23:30N 52°45' E 004°09'816.1
2018-Feb-15 23:01N 52°39' E 004°02'816.2
2018-Feb-15 22:30N 52°31' E 003°56'816.1
2018-Feb-15 22:00N 52°24' E 003°53'816.0
2018-Feb-15 21:31N 52°16' E 003°52'816.1
2018-Feb-15 21:01N 52°08' E 003°54'611.8
2018-Feb-15 20:31N 52°02' E 003°55'816.6
2018-Feb-15 20:00N 51°59' E 004°07'815.1
2018-Feb-15 19:30N 51°54' E 004°17'5 9.6
2018-Feb-15 19:01N 51°53' E 004°25'0 0.9
2018-Feb-15 18:29N 51°53' E 004°25'0 0.0
2018-Feb-15 17:59N 51°53' E 004°25'0 0.0
2018-Feb-15 17:26N 51°53' E 004°25'0 0.0
2018-Feb-15 16:59N 51°53' E 004°25'0 0.0
2018-Feb-15 16:29N 51°53' E 004°25'0 0.0
2018-Feb-15 15:59N 51°53' E 004°25'0 0.0
2018-Feb-15 15:29N 51°53' E 004°25'0 0.0
2018-Feb-15 14:59N 51°53' E 004°25'0 0.0
2018-Feb-15 14:29N 51°53' E 004°25'0 0.0
2018-Feb-15 13:59N 51°53' E 004°25'0 0.0
2018-Feb-15 13:29N 51°53' E 004°25'0 0.0
2018-Feb-15 12:59N 51°53' E 004°25'0 0.0
2018-Feb-15 12:29N 51°53' E 004°25'0 0.0
2018-Feb-15 11:59N 51°53' E 004°25'0 0.0
2018-Feb-15 11:29N 51°53' E 004°25'0 0.0
2018-Feb-15 10:59N 51°53' E 004°25'0 0.0
2018-Feb-15 10:29N 51°53' E 004°25'0 0.0
2018-Feb-15 09:59N 51°53' E 004°25'0 0.0
2018-Feb-15 09:29N 51°53' E 004°25'0 0.0
2018-Feb-15 08:59N 51°53' E 004°25'0 0.0
2018-Feb-15 08:29N 51°53' E 004°25'0 0.0
2018-Feb-15 07:59N 51°53' E 004°25'0 0.0
2018-Feb-15 07:29N 51°53' E 004°25'0 0.8
2018-Feb-15 07:01N 51°53' E 004°25'3 6.7
2018-Feb-15 06:31N 51°54' E 004°20'611.1
2018-Feb-15 06:00N 51°56' E 004°12'612.5
2018-Feb-15 05:30N 51°59' E 004°03'815.6
2018-Feb-15 05:01N 52°01' E 003°51'612.3
2018-Feb-15 04:30N 52°04' E 003°41'6412.4
2018-Feb-14 23:20N 52°42' E 002°17'413.0
2018-Feb-14 23:00N 52°42' E 002°10'5 9.3
2018-Feb-14 22:30N 52°45' E 002°04'511.0
2018-Feb-14 22:00N 52°47' E 001°56'713.3
2018-Feb-14 21:31N 52°50' E 001°46'714.4
2018-Feb-14 21:01N 52°55' E 001°37'714.7
2018-Feb-14 20:31N 53°01' E 001°30'815.1
2018-Feb-14 20:00N 53°07' E 001°23'815.0
2018-Feb-14 19:30N 53°13' E 001°16'3913.7
2018-Feb-14 16:42N 53°32' E 000°19'315.0
2018-Feb-14 16:30N 53°32' E 000°15'510.7
2018-Feb-14 16:01N 53°34' E 000°06'611.0
2018-Feb-14 15:30N 53°37' W 000°02'510.7
2018-Feb-14 15:00N 53°38' W 000°11'1 1.2
2018-Feb-14 14:30N 53°38' W 000°11'0 0.2
2018-Feb-14 14:00N 53°38' W 000°12'0 0.0
2018-Feb-14 13:25N 53°38' W 000°12'0 0.0
2018-Feb-14 12:58N 53°38' W 000°12'0 0.0
2018-Feb-14 12:28N 53°38' W 000°12'0 0.0
2018-Feb-14 11:58N 53°38' W 000°12'0 0.0
2018-Feb-14 11:28N 53°38' W 000°12'0 0.0
2018-Feb-14 10:58N 53°38' W 000°12'0 0.0
2018-Feb-14 10:28N 53°38' W 000°12'0 0.0
2018-Feb-14 09:58N 53°38' W 000°12'0 0.0
2018-Feb-14 09:28N 53°38' W 000°12'0 0.0
2018-Feb-14 08:58N 53°38' W 000°12'0 0.3
2018-Feb-14 08:28N 53°38' W 000°11'0 0.5
2018-Feb-14 08:00N 53°38' W 000°12'0 0.0
2018-Feb-14 07:30N 53°38' W 000°12'0 0.0
2018-Feb-14 07:00N 53°38' W 000°12'0 0.0
2018-Feb-14 06:30N 53°38' W 000°12'0 0.0
2018-Feb-14 06:00N 53°38' W 000°12'0 0.0
2018-Feb-14 05:30N 53°38' W 000°12'0 0.0
2018-Feb-14 05:00N 53°38' W 000°12'0 0.0
2018-Feb-14 04:30N 53°38' W 000°12'0 0.0
2018-Feb-14 04:00N 53°38' W 000°12'0 0.0
2018-Feb-14 03:30N 53°38' W 000°12'0 0.3
2018-Feb-14 03:00N 53°38' W 000°12'0 0.5
2018-Feb-14 02:30N 53°38' W 000°11'0 0.8
2018-Feb-14 02:01N 53°38' W 000°11'2 4.6
2018-Feb-14 01:31N 53°38' W 000°08'816.2
2018-Feb-14 01:00N 53°35' E 000°05'611.8
2018-Feb-14 00:30N 53°34' E 000°15'4 7.4
2018-Feb-14 00:00N 53°36' E 000°19'3 6.5
2018-Feb-13 23:30N 53°39' E 000°22'3 7.0
2018-Feb-13 23:00N 53°43' E 000°20'4 7.1
2018-Feb-13 22:30N 53°46' E 000°18'3 6.8
2018-Feb-13 22:00N 53°49' E 000°16'4 7.7
2018-Feb-13 21:30N 53°53' E 000°15'4 8.3
2018-Feb-13 21:01N 53°57' E 000°12'4 8.2
2018-Feb-13 20:30N 54°01' E 000°10'4 7.8
2018-Feb-13 20:01N 54°04' E 000°09'4 7.1
2018-Feb-13 19:31N 54°08' E 000°07'4 7.2
2018-Feb-13 19:01N 54°11' E 000°05'4 7.2
2018-Feb-13 18:31N 54°14' E 000°02'4 7.6
2018-Feb-13 18:01N 54°17' W 000°03'4 8.0
2018-Feb-13 17:31N 54°19' W 000°08'5 9.1
2018-Feb-13 17:01N 54°23' W 000°14'611.9
2018-Feb-13 16:31N 54°26' W 000°22'612.0
2018-Feb-13 16:01N 54°30' W 000°29'1515.1
2018-Feb-13 15:00N 54°40' W 000°50'815.4
2018-Feb-13 14:30N 54°47' W 000°54'816.0
2018-Feb-13 14:00N 54°55' W 000°58'815.7
2018-Feb-13 13:31N 55°02' W 001°02'815.5
2018-Feb-13 13:01N 55°10' W 001°06'714.1
2018-Feb-13 12:30N 55°17' W 001°04'713.9
2018-Feb-13 12:00N 55°24' W 001°02'813.4
2018-Feb-13 11:22N 55°32' W 000°59'6411.9
2018-Feb-13 06:00N 56°36' W 001°06'3712.4 170 / 29988.010.8 5.0
2018-Feb-13 03:00N 57°12' W 001°24'1013.6 170 / 27989.510.8 5.1
2018-Feb-13 02:17N 57°21' W 001°27'413.6
2018-Feb-13 02:00N 57°25' W 001°29'713.7
2018-Feb-13 01:31N 57°32' W 001°31'714.2
2018-Feb-13 01:00N 57°39' W 001°35'714.7
2018-Feb-13 00:30N 57°45' W 001°41'714.3
2018-Feb-13 00:01N 57°51' W 001°49'4915.2
2018-Feb-12 20:47N 58°30' W 002°44'415.5
2018-Feb-12 20:31N 58°34' W 002°49'918.2
2018-Feb-12 20:01N 58°41' W 003°00'1018.1
2018-Feb-12 19:28N 58°44' W 003°18'675455.6
2018-Feb-12 18:00N 64°36' W 023°30'604201.3 979.4 0.0 -2.6 4.6
2018-Feb-12 15:00N 59°18' W 005°18'4113.6 210 / 27991.210.8 3.4
2018-Feb-12 12:00N 59°36' W 006°30'13014.5 210 / 25991.010.8 2.2
2018-Feb-12 03:00N 60°54' W 010°00'   220 / 43988.010.8 2.4
Track history (hours):
 
Tides and Currents Weather Stations Pressure Air Temp Water Temp Dewpoint Dewpoint Depression Visibility Wind Speed Wind Dir Waves Ship Positions

Helgafell

Last reported at 2018-Feb-21 18:00 UTC. Time now 2018-Feb-25 13:18 UTC.
Position N 63°30' W 020°06'.

Type: Cargo ship. MMSI: 231355978.

Wind from 180 at 23 knots

Barometer 988.0 mb
Air temperature 6.0 ° C
Visibility: greater than 5.4 NM

Date/timePositionNaut miles runAvg speedWind from/ knotsBaromVisibWave heightAir tempDewpointWater temp
2018-Feb-21 18:00N 63°30' W 020°06'26021.7 180 / 23988.0 5.4 6.0
2018-Feb-21 06:00N 66°18' W 027°54'331110.3 050 1005.810.8 -0.8 -1.3
2018-Feb-21 03:00N 66°48' W 014°06'19 6.4 200 / 191002.010.8 1.9 3.0
2018-Feb-21 00:00N 67°06' W 013°48'26989.7 220 1019.510.8 2.2 3.1
2018-Feb-20 21:00N 63°00' W 009°30'46512.1 270 1018.210.8 5.4
2018-Feb-19 06:34N 58°56' E 004°04'217.3
2018-Feb-19 06:29N 58°55' E 004°07'817.5
2018-Feb-19 06:00N 58°49' E 004°19'917.3
2018-Feb-19 05:30N 58°44' E 004°32'816.7
2018-Feb-19 05:00N 58°38' E 004°44'817.1
2018-Feb-19 04:30N 58°33' E 004°57'917.6
2018-Feb-19 04:00N 58°27' E 005°10'917.6
2018-Feb-19 03:31N 58°22' E 005°22'917.9
2018-Feb-19 03:01N 58°15' E 005°35'917.6
2018-Feb-19 02:30N 58°10' E 005°49'917.2
2018-Feb-19 02:00N 58°05' E 006°02'917.6
2018-Feb-19 01:31N 58°00' E 006°15'917.7
2018-Feb-19 01:01N 57°54' E 006°27'917.0
2018-Feb-19 00:30N 57°49' E 006°40'817.1
2018-Feb-19 00:00N 57°48' E 006°56'916.6
2018-Feb-18 23:29N 57°48' E 007°12'816.4
2018-Feb-18 23:01N 57°48' E 007°27'916.7
2018-Feb-18 22:30N 57°48' E 007°43'917.3
2018-Feb-18 22:00N 57°47' E 007°59'1417.5
2018-Feb-18 21:13N 57°47' E 008°25'416.4
2018-Feb-18 21:00N 57°47' E 008°31'4515.7
2018-Feb-18 18:06N 57°48' E 009°57'215.2
2018-Feb-18 18:00N 57°48' E 009°60'715.1
2018-Feb-18 17:30N 57°48' E 010°14'715.1
2018-Feb-18 17:01N 57°48' E 010°28'815.2
2018-Feb-18 16:31N 57°48' E 010°42'816.0
2018-Feb-18 16:01N 57°44' E 010°55'816.7
2018-Feb-18 15:31N 57°39' E 011°07'917.1
2018-Feb-18 15:00N 57°33' E 011°19'817.0
2018-Feb-18 14:31N 57°27' E 011°30'816.4
2018-Feb-18 14:00N 57°21' E 011°41'916.8
2018-Feb-18 13:30N 57°15' E 011°52'917.1
2018-Feb-18 12:59N 57°09' E 012°03'613.1
2018-Feb-18 12:31N 57°06' E 012°14'1061162.9
2018-Feb-18 06:00N 68°00' W 018°00'1080359.9 080 / 171008.310.8 1.6 1.7
2018-Feb-18 03:00N 56°24' E 011°30'1114.4 1021.810.8 3.8
2018-Feb-18 02:16N 56°14' E 011°22'1017.5
2018-Feb-18 01:41N 56°07' E 011°10'616.7
2018-Feb-18 01:18N 56°05' E 010°59'717.5
2018-Feb-18 00:56N 56°03' E 010°48'817.4
2018-Feb-18 00:30N 56°04' E 010°34'817.3
2018-Feb-18 00:01N 56°08' E 010°21'4 7.7
2018-Feb-17 23:30N 56°09' E 010°14'0 0.0
2018-Feb-17 23:00N 56°09' E 010°14'0 0.0
2018-Feb-17 22:30N 56°09' E 010°14'0 0.0
2018-Feb-17 22:00N 56°09' E 010°14'0 0.0
2018-Feb-17 21:30N 56°09' E 010°14'0 0.0
2018-Feb-17 21:00N 56°09' E 010°14'0 0.0
2018-Feb-17 20:30N 56°09' E 010°14'0 0.0
2018-Feb-17 20:00N 56°09' E 010°14'0 0.0
2018-Feb-17 19:30N 56°09' E 010°14'0 0.0
2018-Feb-17 19:00N 56°09' E 010°14'0 0.0
2018-Feb-17 18:30N 56°09' E 010°14'0 0.0
2018-Feb-17 18:00N 56°09' E 010°14'0 0.0
2018-Feb-17 17:30N 56°09' E 010°14'0 0.0
2018-Feb-17 17:00N 56°09' E 010°14'0 0.0
2018-Feb-17 16:30N 56°09' E 010°14'0 0.0
2018-Feb-17 16:00N 56°09' E 010°14'0 0.0
2018-Feb-17 15:30N 56°09' E 010°14'0 0.0
2018-Feb-17 15:00N 56°09' E 010°14'0 0.0
2018-Feb-17 14:30N 56°09' E 010°14'0 0.0
2018-Feb-17 14:00N 56°09' E 010°14'0 0.1
2018-Feb-17 13:31N 56°09' E 010°14'2 4.1
2018-Feb-17 13:00N 56°09' E 010°18'816.7
2018-Feb-17 12:30N 56°02' E 010°25'4115.6
2018-Feb-17 09:52N 55°25' E 010°59'615.6
2018-Feb-17 09:29N 55°19' E 011°02'816.1
2018-Feb-17 09:00N 55°12' E 011°06'816.2
2018-Feb-17 08:30N 55°04' E 011°03'815.9
2018-Feb-17 08:00N 54°57' E 010°57'815.4
2018-Feb-17 07:30N 54°49' E 010°52'816.0
2018-Feb-17 07:00N 54°41' E 010°52'917.2
2018-Feb-17 06:30N 54°36' E 010°41'916.9
2018-Feb-17 06:00N 54°32' E 010°28'20 8.0
2018-Feb-17 03:32N 54°21' E 009°60'0 8.0
2018-Feb-17 03:30N 54°21' E 009°59'3 6.6
2018-Feb-17 03:00N 54°21' E 009°54'4 8.0
2018-Feb-17 02:31N 54°21' E 009°47'4 8.1
2018-Feb-17 02:00N 54°18' E 009°43'4 7.4
2018-Feb-17 01:30N 54°16' E 009°38'4 7.3
2018-Feb-17 01:00N 54°13' E 009°35'4 8.4
2018-Feb-17 00:30N 54°11' E 009°28'4 8.5
2018-Feb-17 00:00N 54°09' E 009°22'3 6.1
2018-Feb-16 23:30N 54°06' E 009°20'4 7.4
2018-Feb-16 23:00N 54°03' E 009°18'2 4.8
2018-Feb-16 22:30N 54°00' E 009°18'4 8.0
2018-Feb-16 22:00N 53°57' E 009°14'1 2.8
2018-Feb-16 21:31N 53°56' E 009°12'3 6.1
2018-Feb-16 21:00N 53°54' E 009°09'0 0.2
2018-Feb-16 20:30N 53°54' E 009°09'2 3.3
2018-Feb-16 20:01N 53°53' E 009°06'4 8.3
2018-Feb-16 19:30N 53°51' E 008°60'612.9
2018-Feb-16 19:00N 53°50' E 008°49'4 7.2
2018-Feb-16 18:30N 53°52' E 008°43'0 0.0
2018-Feb-16 18:00N 53°52' E 008°43'0 0.0
2018-Feb-16 17:29N 53°52' E 008°43'0 0.0
2018-Feb-16 16:59N 53°52' E 008°43'0 0.0
2018-Feb-16 16:23N 53°52' E 008°43'0 0.0
2018-Feb-16 16:00N 53°52' E 008°43'0 0.0
2018-Feb-16 15:27N 53°52' E 008°43'0 0.0
2018-Feb-16 14:59N 53°52' E 008°43'0 0.0
2018-Feb-16 14:29N 53°52' E 008°43'0 0.0
2018-Feb-16 14:00N 53°52' E 008°43'0 0.0
2018-Feb-16 13:29N 53°52' E 008°43'0 0.2
2018-Feb-16 13:00N 53°52' E 008°43'2 3.8
2018-Feb-16 12:30N 53°53' E 008°42'510.1
2018-Feb-16 12:00N 53°57' E 008°36'713.2
2018-Feb-16 11:30N 53°59' E 008°25'815.5
2018-Feb-16 11:00N 53°60' E 008°12'510.4
2018-Feb-16 10:30N 53°58' E 008°04'2 4.0
2018-Feb-16 10:00N 53°58' E 008°01'2 4.3
2018-Feb-16 09:30N 53°57' E 007°57'2 4.7
2018-Feb-16 09:00N 53°57' E 007°53'7617.5
2018-Feb-16 04:37N 53°38' E 005°48'517.1
2018-Feb-16 04:20N 53°36' E 005°39'617.1
2018-Feb-16 03:59N 53°35' E 005°30'816.8
2018-Feb-16 03:30N 53°32' E 005°17'1416.6
2018-Feb-16 02:41N 53°27' E 004°56'316.5
2018-Feb-16 02:30N 53°26' E 004°51'1615.7
2018-Feb-16 01:29N 53°14' E 004°34'816.3
2018-Feb-16 01:00N 53°07' E 004°28'816.3
2018-Feb-16 00:31N 52°60' E 004°21'816.3
2018-Feb-16 00:00N 52°53' E 004°15'816.1
2018-Feb-15 23:30N 52°45' E 004°09'816.1
2018-Feb-15 23:01N 52°39' E 004°02'816.2
2018-Feb-15 22:30N 52°31' E 003°56'816.1
2018-Feb-15 22:00N 52°24' E 003°53'816.0
2018-Feb-15 21:31N 52°16' E 003°52'816.1
2018-Feb-15 21:01N 52°08' E 003°54'611.8
2018-Feb-15 20:31N 52°02' E 003°55'816.6
2018-Feb-15 20:00N 51°59' E 004°07'815.1
2018-Feb-15 19:30N 51°54' E 004°17'5 9.6
2018-Feb-15 19:01N 51°53' E 004°25'0 0.9
2018-Feb-15 18:29N 51°53' E 004°25'0 0.0
2018-Feb-15 17:59N 51°53' E 004°25'0 0.0
2018-Feb-15 17:26N 51°53' E 004°25'0 0.0
2018-Feb-15 16:59N 51°53' E 004°25'0 0.0
2018-Feb-15 16:29N 51°53' E 004°25'0 0.0
2018-Feb-15 15:59N 51°53' E 004°25'0 0.0
2018-Feb-15 15:29N 51°53' E 004°25'0 0.0
2018-Feb-15 14:59N 51°53' E 004°25'0 0.0
2018-Feb-15 14:29N 51°53' E 004°25'0 0.0
2018-Feb-15 13:59N 51°53' E 004°25'0 0.0
2018-Feb-15 13:29N 51°53' E 004°25'0 0.0
2018-Feb-15 12:59N 51°53' E 004°25'0 0.0
2018-Feb-15 12:29N 51°53' E 004°25'0 0.0
2018-Feb-15 11:59N 51°53' E 004°25'0 0.0
2018-Feb-15 11:29N 51°53' E 004°25'0 0.0
2018-Feb-15 10:59N 51°53' E 004°25'0 0.0
2018-Feb-15 10:29N 51°53' E 004°25'0 0.0
2018-Feb-15 09:59N 51°53' E 004°25'0 0.0
2018-Feb-15 09:29N 51°53' E 004°25'0 0.0
2018-Feb-15 08:59N 51°53' E 004°25'0 0.0
2018-Feb-15 08:29N 51°53' E 004°25'0 0.0
2018-Feb-15 07:59N 51°53' E 004°25'0 0.0
2018-Feb-15 07:29N 51°53' E 004°25'0 0.8
2018-Feb-15 07:01N 51°53' E 004°25'3 6.7
2018-Feb-15 06:31N 51°54' E 004°20'611.1
2018-Feb-15 06:00N 51°56' E 004°12'612.5
2018-Feb-15 05:30N 51°59' E 004°03'815.6
2018-Feb-15 05:01N 52°01' E 003°51'612.3
2018-Feb-15 04:30N 52°04' E 003°41'6412.4
2018-Feb-14 23:20N 52°42' E 002°17'413.0
2018-Feb-14 23:00N 52°42' E 002°10'5 9.3
2018-Feb-14 22:30N 52°45' E 002°04'511.0
2018-Feb-14 22:00N 52°47' E 001°56'713.3
2018-Feb-14 21:31N 52°50' E 001°46'714.4
2018-Feb-14 21:01N 52°55' E 001°37'714.7
2018-Feb-14 20:31N 53°01' E 001°30'815.1
2018-Feb-14 20:00N 53°07' E 001°23'815.0
2018-Feb-14 19:30N 53°13' E 001°16'3913.7
2018-Feb-14 16:42N 53°32' E 000°19'315.0
2018-Feb-14 16:30N 53°32' E 000°15'510.7
2018-Feb-14 16:01N 53°34' E 000°06'611.0
2018-Feb-14 15:30N 53°37' W 000°02'510.7
2018-Feb-14 15:00N 53°38' W 000°11'1 1.2
2018-Feb-14 14:30N 53°38' W 000°11'0 0.2
2018-Feb-14 14:00N 53°38' W 000°12'0 0.0
2018-Feb-14 13:25N 53°38' W 000°12'0 0.0
2018-Feb-14 12:58N 53°38' W 000°12'0 0.0
2018-Feb-14 12:28N 53°38' W 000°12'0 0.0
2018-Feb-14 11:58N 53°38' W 000°12'0 0.0
2018-Feb-14 11:28N 53°38' W 000°12'0 0.0
2018-Feb-14 10:58N 53°38' W 000°12'0 0.0
2018-Feb-14 10:28N 53°38' W 000°12'0 0.0
2018-Feb-14 09:58N 53°38' W 000°12'0 0.0
2018-Feb-14 09:28N 53°38' W 000°12'0 0.0
2018-Feb-14 08:58N 53°38' W 000°12'0 0.3
2018-Feb-14 08:28N 53°38' W 000°11'0 0.5
2018-Feb-14 08:00N 53°38' W 000°12'0 0.0
2018-Feb-14 07:30N 53°38' W 000°12'0 0.0
2018-Feb-14 07:00N 53°38' W 000°12'0 0.0
2018-Feb-14 06:30N 53°38' W 000°12'0 0.0
2018-Feb-14 06:00N 53°38' W 000°12'0 0.0
2018-Feb-14 05:30N 53°38' W 000°12'0 0.0
2018-Feb-14 05:00N 53°38' W 000°12'0 0.0
2018-Feb-14 04:30N 53°38' W 000°12'0 0.0
2018-Feb-14 04:00N 53°38' W 000°12'0 0.0
2018-Feb-14 03:30N 53°38' W 000°12'0 0.3
2018-Feb-14 03:00N 53°38' W 000°12'0 0.5
2018-Feb-14 02:30N 53°38' W 000°11'0 0.8
2018-Feb-14 02:01N 53°38' W 000°11'2 4.6
2018-Feb-14 01:31N 53°38' W 000°08'816.2
2018-Feb-14 01:00N 53°35' E 000°05'611.8
2018-Feb-14 00:30N 53°34' E 000°15'4 7.4
2018-Feb-14 00:00N 53°36' E 000°19'3 6.5
2018-Feb-13 23:30N 53°39' E 000°22'3 7.0
2018-Feb-13 23:00N 53°43' E 000°20'4 7.1
2018-Feb-13 22:30N 53°46' E 000°18'3 6.8
2018-Feb-13 22:00N 53°49' E 000°16'4 7.7
2018-Feb-13 21:30N 53°53' E 000°15'4 8.3
2018-Feb-13 21:01N 53°57' E 000°12'4 8.2
2018-Feb-13 20:30N 54°01' E 000°10'4 7.8
2018-Feb-13 20:01N 54°04' E 000°09'4 7.1
2018-Feb-13 19:31N 54°08' E 000°07'4 7.2
2018-Feb-13 19:01N 54°11' E 000°05'4 7.2
2018-Feb-13 18:31N 54°14' E 000°02'4 7.6
2018-Feb-13 18:01N 54°17' W 000°03'4 8.0
2018-Feb-13 17:31N 54°19' W 000°08'5 9.1
2018-Feb-13 17:01N 54°23' W 000°14'611.9
2018-Feb-13 16:31N 54°26' W 000°22'612.0
2018-Feb-13 16:01N 54°30' W 000°29'1515.1
2018-Feb-13 15:00N 54°40' W 000°50'815.4
2018-Feb-13 14:30N 54°47' W 000°54'816.0
2018-Feb-13 14:00N 54°55' W 000°58'815.7
2018-Feb-13 13:31N 55°02' W 001°02'815.5
2018-Feb-13 13:01N 55°10' W 001°06'714.1
2018-Feb-13 12:30N 55°17' W 001°04'713.9
2018-Feb-13 12:00N 55°24' W 001°02'813.4
2018-Feb-13 11:22N 55°32' W 000°59'6411.9
2018-Feb-13 06:00N 56°36' W 001°06'3712.4 170 / 29988.010.8 5.0
2018-Feb-13 03:00N 57°12' W 001°24'1013.6 170 / 27989.510.8 5.1
2018-Feb-13 02:17N 57°21' W 001°27'413.6
2018-Feb-13 02:00N 57°25' W 001°29'713.7
2018-Feb-13 01:31N 57°32' W 001°31'714.2
2018-Feb-13 01:00N 57°39' W 001°35'714.7
2018-Feb-13 00:30N 57°45' W 001°41'714.3
2018-Feb-13 00:01N 57°51' W 001°49'4915.2
2018-Feb-12 20:47N 58°30' W 002°44'415.5
2018-Feb-12 20:31N 58°34' W 002°49'918.2
2018-Feb-12 20:01N 58°41' W 003°00'1018.1
2018-Feb-12 19:28N 58°44' W 003°18'675455.6
2018-Feb-12 18:00N 64°36' W 023°30'604201.3 979.4 0.0 -2.6 4.6
2018-Feb-12 15:00N 59°18' W 005°18'4113.6 210 / 27991.210.8 3.4
2018-Feb-12 12:00N 59°36' W 006°30'13014.5 210 / 25991.010.8 2.2
2018-Feb-12 03:00N 60°54' W 010°00'   220 / 43988.010.8 2.4

Dump ship's entire track history